Christmas / Cassidy, Kiribati

5:56 PM GILT on December 06, 2016 (GMT +1200)
Cassidy International | | Change Station

Elev 3 ft 1.99 °N, 157.35 °W | Updated 56 minutes ago

Scattered Clouds
Scattered Clouds
79 °F
Feels Like 79 °F
N
12
Wind Variable Wind from ESE

Today
High -- | Low -- °F
--% Chance of Precip.
Yesterday
High -- | Low -- °F
Precip. -- in
Pressure 29.80 in
Visibility 6.2 miles
Clouds Scattered Clouds 2000 ft
Dew Point 72 °F
Humidity 78%
Rainfall 0.00 in
Snow Depth Not available.
4:20 AM 4:21 PM
Waxing Crescent, 38% visible
METAR PLCH 060500Z 12010KT 9999 SCT020 26/22 Q1009
Pressure 29.80 in
Visibility 6.2 miles
Clouds Scattered Clouds 2000 ft
Dew Point 72 °F
Humidity 78%
Rainfall 0.00 in
Snow Depth Not available.
4:20 AM 4:21 PM
Waxing Crescent, 38% visible
METAR PLCH 060500Z 12010KT 9999 SCT020 26/22 Q1009

10-Day Weather Forecast

No radar image for this location.
×

Almanac

Astronomy

Dec. 06, 2016 Rise Set
Actual Time
Civil Twilight
Nautical Twilight
Astronomical Twilight
Moon
Length of Visible Light
Length of Day
Tomorrow will be .
, % of the Moon is Illuminated

Today's Extremes

Country Highs Country Lows

Community

WunderPhotos

Upload Photos

1,955,931 photos uploaded!

WunderBlog® & News

Nearby

Air Quality

  Air Quality AQ Index Pollutant
Not available.

Snow Depth

Station Depth Elevation

Earthquake Activity

City Distance Mag. Time & Date
Minimum magnitude displayed is 2.5.

Coastal Water Temperatures

Place Temperature

Stations

Nearby Weather Stations

Station Location Temp. Windchill Dew Point Humidity Wind Precip. Elev Updated Type